09:09
Airports
History
Links
Donate
Help keep this website running!
PayPal
Bitcoin
This page is community maintained. The information is intended for PC simulator navigation or reference.
Always use approved charts for navigation.
39W
Bell Strip
Bell Strip (39W)
Pollocksville, North Carolina, United States (28573)
4
Lat/Lng:34° 59' 43.57" N / 77° 15' 27.84" W
34.995436 / -77.257733
Elevation:35'ft / 11mMSL
ID / ICAO:39W
Runways:1
Longest:17-35
Grass 917m / 3,010ft
Nearby Weather08:54 GMT 2018-01-20
Nearby weather at KEWN, Coastal Carolina Regional located 13.3 nautical miles from 39W
Altimeter: 30.17
Visibility: 10.0 statute miles
Wind: 5 knots (from 240°)
Temp: 2°c / 36°f
Humidity: 64.4%

METAR: KEWN 200854Z AUTO 24005KT 10SM CLR 02/M04 A3017 RMK AO2 SLP215 T00221039 58005

(Powered by phpweather)
Nearby VORs <50NM
Nearby NDBs
Runway 17 / 35
Dimensions:917.3 x 22.9m 3010' x 75'ft
Surface:Grass
Runway 17 [A]Runway 35 [B]
Heading:161°TH 341°TH
Lat:
Lng:
34° 59' 57.66"N
77° 15' 33.43"W
34° 59' 29.48"N
77° 15' 22.25"W
User Notes and Comments
34° 59' 43.57" N / 77° 15' 27.84" W
Distance To
Airport ID:
Nearby Airports
(R) Oak Grove Mcolf 2.7 NM
13NC N
(R) Parker Field 4.2 NM
8NC7 SSW 194°
(U) Canaan Air Base 8.3 NM
W53 NE 40°
4 Deppe Landing Strip 10.3 NM
32W SSW 198°
(C) Coastal Carolina Regional 13.3 NM
KEWN ( WX ) ENE 66°
(U) Hickory Hill 18.2 NM
W74 ESE 102°
4 Hell and Purgatory 19.0 NM
47W W 265°
VFR Chart
Flight Planning at SkyVector.com